Time;durP1;ratioP1;P1;durP2;ratioP2;P2;SDS_P1;SDS_P2;PMS_P1;PMS_P2;Temp;Humidity;BMP_temperature;BMP_pressure;BME280_temperature;BME280_humidity;BME280_pressure;Samples;Min_cycle;Max_cycle;Signal;HPM_P1;HPM_P2
2022/10/26 00:02:53;;;;;;;0.63;0.35;;;23.20;60.50;;;;;;6189265;28;20160;-57
2022/10/26 00:06:02;;;;;;;0.73;0.40;;;23.10;60.30;;;;;;6199529;28;20079;-57
2022/10/26 00:09:03;;;;;;;0.30;0.20;;;22.80;60.20;;;;;;6209068;28;20057;-57
2022/10/26 00:12:05;;;;;;;0.65;0.20;;;23.10;60.60;;;;;;6211019;28;20155;-55
2022/10/26 00:15:08;;;;;;;0.70;0.30;;;22.70;60.30;;;;;;6205456;28;20124;-57
2022/10/26 00:18:09;;;;;;;0.32;0.30;;;22.80;60.30;;;;;;6208288;28;20044;-56
2022/10/26 00:21:11;;;;;;;;;;;23.50;60.90;;;;;;6198723;28;21000;-54
2022/10/26 00:24:13;;;;;;;0.63;0.30;;;22.60;60.50;;;;;;6208415;28;19974;-57
2022/10/26 00:27:14;;;;;;;0.30;0.20;;;23.00;60.70;;;;;;6207474;28;20041;-57
2022/10/26 00:30:16;;;;;;;0.60;0.30;;;22.60;60.60;;;;;;6207278;28;20037;-57
2022/10/26 00:33:18;;;;;;;0.70;0.47;;;23.00;60.70;;;;;;6211441;28;20048;-54
2022/10/26 00:36:20;;;;;;;0.85;0.30;;;23.00;60.90;;;;;;6209042;28;20660;-56
2022/10/26 00:39:22;;;;;;;0.50;0.30;;;23.10;61.00;;;;;;6212845;28;20788;-57
2022/10/26 00:42:23;;;;;;;0.50;0.30;;;22.90;61.00;;;;;;6211886;28;20888;-55
2022/10/26 00:45:26;;;;;;;;;;;22.60;61.00;;;;;;6212239;28;20086;-54
2022/10/26 00:48:32;;;;;;;0.40;0.20;;;22.60;61.20;;;;;;6192878;28;19929;-57
2022/10/26 00:51:37;;;;;;;0.82;0.40;;;22.90;61.10;;;;;;6214049;28;20040;-56
2022/10/26 00:54:40;;;;;;;0.28;0.28;;;22.90;61.20;;;;;;6214207;28;20051;-55
2022/10/26 00:57:41;;;;;;;0.40;0.30;;;23.10;61.70;;;;;;6210790;28;20077;-54
2022/10/26 01:00:44;;;;;;;0.38;0.28;;;22.50;61.50;;;;;;6209396;28;20044;-55
2022/10/26 01:03:46;;;;;;;0.65;0.28;;;23.00;62.00;;;;;;6214418;28;20135;-56
2022/10/26 01:06:50;;;;;;;0.40;0.30;;;23.10;62.90;;;;;;6206622;28;20037;-57
2022/10/26 01:09:52;;;;;;;0.32;0.20;;;22.80;62.30;;;;;;6210553;28;20044;-57
2022/10/26 01:12:58;;;;;;;0.38;0.20;;;23.30;62.80;;;;;;6214699;28;21418;-57
2022/10/26 01:16:11;;;;;;;0.60;0.25;;;22.80;62.60;;;;;;6213540;28;20179;-56
2022/10/26 01:19:38;;;;;;;0.20;0.20;;;22.60;62.70;;;;;;6211663;28;20048;-57
2022/10/26 01:22:46;;;;;;;0.20;0.17;;;22.70;63.00;;;;;;6214790;28;20068;-57
2022/10/26 01:26:13;;;;;;;0.30;0.30;;;22.60;63.20;;;;;;6197279;28;20041;-56
2022/10/26 01:29:40;;;;;;;0.77;0.30;;;22.80;63.40;;;;;;6212714;28;20143;-58
2022/10/26 01:32:49;;;;;;;0.32;0.20;;;22.90;63.80;;;;;;6214444;28;20195;-56
2022/10/26 01:36:03;;;;;;;0.52;0.20;;;22.50;63.40;;;;;;6199159;28;20041;-57
2022/10/26 01:39:09;;;;;;;0.28;0.10;;;22.30;63.80;;;;;;6210268;28;20048;-58
2022/10/26 01:42:13;;;;;;;0.35;0.20;;;22.70;63.90;;;;;;6205873;28;20147;-56
2022/10/26 01:45:15;;;;;;;0.57;0.20;;;22.80;64.00;;;;;;6202911;28;20049;-55
2022/10/26 01:48:20;;;;;;;0.50;0.30;;;22.70;64.00;;;;;;6191111;28;20129;-57
2022/10/26 01:51:22;;;;;;;0.20;0.10;;;22.50;64.10;;;;;;6192333;28;20074;-57
2022/10/26 01:54:23;;;;;;;0.20;0.20;;;22.70;64.30;;;;;;6205314;28;20149;-57
2022/10/26 01:57:25;;;;;;;0.40;0.20;;;22.90;64.70;;;;;;6210432;28;20045;-54
2022/10/26 02:00:27;;;;;;;;;;;22.50;64.60;;;;;;6213180;28;20037;-56
2022/10/26 02:03:37;;;;;;;0.80;0.22;;;22.50;64.60;;;;;;6211453;28;20059;-56
2022/10/26 02:06:47;;;;;;;0.28;0.13;;;23.20;64.60;;;;;;6211781;28;20949;-57
2022/10/26 02:09:58;;;;;;;0.22;0.20;;;22.80;64.50;;;;;;6248568;22;20044;-58
2022/10/26 02:13:07;;;;;;;0.20;0.10;;;22.80;64.50;;;;;;6253987;28;20050;-54
2022/10/26 02:16:19;;;;;;;0.25;0.10;;;23.20;64.70;;;;;;6252216;28;20044;-57
2022/10/26 02:19:31;;;;;;;0.50;0.10;;;23.50;64.80;;;;;;6248760;28;20044;-56
2022/10/26 02:22:37;;;;;;;0.32;0.15;;;22.90;64.40;;;;;;6252381;28;20833;-56
2022/10/26 02:25:43;;;;;;;0.20;0.20;;;22.70;64.30;;;;;;6237705;28;20101;-54
2022/10/26 02:28:48;;;;;;;0.30;0.22;;;22.70;64.30;;;;;;6226341;28;20160;-57
2022/10/26 02:31:52;;;;;;;0.15;0.10;;;22.90;64.40;;;;;;6237404;28;20047;-57
2022/10/26 02:34:56;;;;;;;0.50;0.28;;;22.70;64.00;;;;;;6257088;28;20093;-58
2022/10/26 02:38:04;;;;;;;0.40;0.20;;;22.30;63.80;;;;;;6255728;28;20087;-56
2022/10/26 02:41:07;;;;;;;0.10;0.08;;;23.00;64.10;;;;;;6255098;28;20127;-58
2022/10/26 02:44:15;;;;;;;0.20;0.10;;;22.60;63.90;;;;;;6254836;28;20447;-52
2022/10/26 02:47:18;;;;;;;0.30;0.15;;;22.60;63.80;;;;;;6250822;28;20346;-55
2022/10/26 02:50:26;;;;;;;0.30;0.20;;;22.60;63.80;;;;;;6250727;28;20060;-53
2022/10/26 02:53:31;;;;;;;0.40;0.17;;;22.80;63.80;;;;;;6250318;28;20040;-54
2022/10/26 02:56:39;;;;;;;0.30;0.30;;;22.70;63.60;;;;;;6249249;28;20361;-56
2022/10/26 02:59:46;;;;;;;0.40;0.20;;;22.90;63.60;;;;;;6230798;28;20472;-53
2022/10/26 03:02:57;;;;;;;0.45;0.10;;;23.00;63.70;;;;;;6250539;28;20574;-54
2022/10/26 03:05:59;;;;;;;0.63;0.20;;;22.90;63.60;;;;;;6247729;28;20604;-52
2022/10/26 03:09:00;;;;;;;0.47;0.20;;;22.80;63.70;;;;;;6241654;28;20627;-54
2022/10/26 03:12:02;;;;;;;0.13;0.10;;;22.60;63.60;;;;;;6231456;28;20048;-56
2022/10/26 03:15:04;;;;;;;0.73;0.30;;;22.90;63.60;;;;;;6230994;28;20468;-55
2022/10/26 03:18:06;;;;;;;0.20;0.20;;;22.80;63.50;;;;;;6234065;28;20951;-58
2022/10/26 03:21:08;;;;;;;1.33;0.25;;;22.60;63.30;;;;;;6235708;28;20055;-57
2022/10/26 03:24:09;;;;;;;0.40;0.20;;;22.80;63.60;;;;;;6237147;28;20044;-55
2022/10/26 03:27:11;;;;;;;0.70;0.30;;;22.10;63.00;;;;;;6214426;28;20053;-59
2022/10/26 03:30:12;;;;;;;;;;;22.80;63.70;;;;;;6238538;28;20203;-57
2022/10/26 03:33:14;;;;;;;0.30;0.10;;;23.00;63.90;;;;;;6238251;28;20035;-55
2022/10/26 03:36:16;;;;;;;0.25;0.13;;;22.70;63.60;;;;;;6237252;28;20045;-56
2022/10/26 03:39:17;;;;;;;0.43;0.15;;;22.40;63.30;;;;;;6233673;28;20344;-58
2022/10/26 03:42:19;;;;;;;0.35;0.10;;;22.70;63.40;;;;;;6230495;28;20075;-55
2022/10/26 03:45:20;;;;;;;;;;;23.50;63.90;;;;;;6233463;28;20609;-54
2022/10/26 03:48:22;;;;;;;0.57;0.20;;;22.50;63.50;;;;;;6230638;28;20451;-58
2022/10/26 03:51:24;;;;;;;0.35;0.20;;;22.70;63.50;;;;;;6229813;28;20043;-57
2022/10/26 03:54:25;;;;;;;0.73;0.32;;;22.80;63.60;;;;;;6230320;28;20163;-58
2022/10/26 03:57:26;;;;;;;;;;;22.90;63.80;;;;;;6231909;28;20253;-55
2022/10/26 04:00:28;;;;;;;0.68;0.30;;;22.60;63.70;;;;;;6231675;28;19928;-56
2022/10/26 04:03:32;;;;;;;;;;;22.40;63.50;;;;;;6232807;28;20152;-57
2022/10/26 04:06:34;;;;;;;0.30;0.15;;;22.80;63.60;;;;;;6233328;28;19996;-57
2022/10/26 04:09:39;;;;;;;0.35;0.15;;;22.60;63.60;;;;;;6234795;28;20064;-58
2022/10/26 04:12:40;;;;;;;0.60;0.30;;;22.50;63.50;;;;;;6236331;28;20040;-58
2022/10/26 04:15:42;;;;;;;;;;;22.80;63.90;;;;;;6241266;28;20136;-58
2022/10/26 04:18:44;;;;;;;;;;;22.40;63.60;;;;;;6233065;28;20127;-58
2022/10/26 04:21:46;;;;;;;0.22;0.20;;;22.90;63.70;;;;;;6229368;28;19929;-59
2022/10/26 04:24:48;;;;;;;0.65;0.30;;;22.70;63.60;;;;;;6237554;28;20282;-58
2022/10/26 04:27:50;;;;;;;0.52;0.20;;;23.20;64.00;;;;;;6236807;28;20481;-58
2022/10/26 04:30:52;;;;;;;0.20;0.20;;;22.70;63.60;;;;;;6232198;28;20049;-57
2022/10/26 04:33:56;;;;;;;;;;;22.60;63.80;;;;;;6234997;28;20127;-58
2022/10/26 04:36:59;;;;;;;0.65;0.25;;;22.90;63.60;;;;;;6217119;28;20204;-58
2022/10/26 04:40:00;;;;;;;0.55;0.20;;;22.70;63.70;;;;;;6234110;28;20043;-56
2022/10/26 04:43:02;;;;;;;0.55;0.20;;;22.70;63.70;;;;;;6233886;28;20064;-56
2022/10/26 04:46:03;;;;;;;0.50;0.38;;;22.40;64.20;;;;;;6213590;28;20040;-56
2022/10/26 04:49:05;;;;;;;0.22;0.20;;;22.30;63.40;;;;;;6230288;28;20048;-57
2022/10/26 04:52:07;;;;;;;;;;;23.00;63.70;;;;;;6224686;28;20305;-58
2022/10/26 04:55:08;;;;;;;0.20;0.20;;;22.30;63.70;;;;;;6231129;28;19932;-58
2022/10/26 04:58:10;;;;;;;0.40;0.17;;;22.60;63.60;;;;;;6231144;28;20230;-58
2022/10/26 05:01:11;;;;;;;;;;;22.70;63.90;;;;;;6225454;28;20585;-57
2022/10/26 05:04:16;;;;;;;0.50;0.28;;;23.00;63.90;;;;;;6225718;28;20343;-54
2022/10/26 05:07:18;;;;;;;0.52;0.20;;;22.20;63.30;;;;;;6220693;28;20530;-57
2022/10/26 05:10:19;;;;;;;0.52;0.20;;;22.60;63.60;;;;;;6223453;28;20292;-55
2022/10/26 05:13:22;;;;;;;0.55;0.17;;;22.30;63.60;;;;;;6224795;28;20494;-56
2022/10/26 05:16:24;;;;;;;0.47;0.22;;;22.50;63.70;;;;;;6204421;28;20121;-58
2022/10/26 05:19:25;;;;;;;;;;;22.40;63.70;;;;;;6224306;28;20036;-55
2022/10/26 05:22:27;;;;;;;0.30;0.10;;;22.30;63.80;;;;;;6225900;28;20404;-53
2022/10/26 05:25:30;;;;;;;0.40;0.20;;;22.30;63.50;;;;;;6222171;28;20137;-56
2022/10/26 05:28:32;;;;;;;0.43;0.25;;;22.70;63.80;;;;;;6196423;28;20324;-57
2022/10/26 05:31:33;;;;;;;0.85;0.28;;;22.50;63.80;;;;;;6216778;28;20410;-56
2022/10/26 05:34:38;;;;;;;;;;;22.70;64.50;;;;;;6213845;28;20157;-58
2022/10/26 05:37:43;;;;;;;0.80;0.22;;;22.40;63.60;;;;;;6220135;28;19997;-58
2022/10/26 05:40:48;;;;;;;0.90;0.32;;;22.60;63.90;;;;;;6222274;28;20113;-58
2022/10/26 05:43:49;;;;;;;1.80;0.50;;;22.40;63.80;;;;;;6224072;28;20151;-59
2022/10/26 05:46:51;;;;;;;;;;;22.70;63.90;;;;;;6226957;28;20143;-59
2022/10/26 05:49:52;;;;;;;1.65;0.82;;;22.70;64.30;;;;;;6223511;28;20031;-58
2022/10/26 05:52:54;;;;;;;;;;;22.30;63.90;;;;;;6208275;28;20068;-54
2022/10/26 05:55:56;;;;;;;1.13;0.40;;;22.80;64.20;;;;;;6219538;28;20798;-58
2022/10/26 05:58:58;;;;;;;0.90;0.40;;;22.40;63.80;;;;;;6205974;28;20071;-57
2022/10/26 06:02:10;;;;;;;1.67;0.60;;;22.40;63.70;;;;;;6213180;28;21023;-58
2022/10/26 06:05:20;;;;;;;1.05;0.30;;;22.50;63.70;;;;;;6212126;28;20076;-58
2022/10/26 06:08:24;;;;;;;0.60;0.30;;;22.50;63.80;;;;;;6216943;28;20048;-56
2022/10/26 06:11:26;;;;;;;0.35;0.20;;;22.90;64.10;;;;;;6192900;28;20041;-58
2022/10/26 06:14:28;;;;;;;0.88;0.30;;;22.50;64.00;;;;;;6215399;28;20871;-58
2022/10/26 06:17:41;;;;;;;1.20;0.30;;;22.40;63.90;;;;;;6202859;28;20804;-58
2022/10/26 06:20:57;;;;;;;1.48;0.50;;;22.90;64.10;;;;;;6193007;28;20045;-57
2022/10/26 06:24:07;;;;;;;0.98;0.30;;;22.80;63.90;;;;;;6190264;28;20044;-58
2022/10/26 06:27:22;;;;;;;1.95;0.60;;;22.10;63.30;;;;;;6191814;28;21019;-59
2022/10/26 06:30:25;;;;;;;1.20;0.50;;;22.40;63.50;;;;;;6192121;28;20917;-59
2022/10/26 06:33:28;;;;;;;1.40;0.30;;;22.70;63.80;;;;;;6181834;28;20051;-56
2022/10/26 06:36:32;;;;;;;1.33;0.40;;;22.70;63.80;;;;;;6165199;28;20052;-59
2022/10/26 06:39:39;;;;;;;2.40;0.68;;;22.90;63.70;;;;;;6154822;28;20041;-58
2022/10/26 06:42:41;;;;;;;1.25;0.38;;;22.60;63.10;;;;;;6156547;28;20159;-57
2022/10/26 06:45:46;;;;;;;2.45;0.40;;;22.90;63.60;;;;;;6158334;28;20228;-59
2022/10/26 06:48:57;;;;;;;2.67;0.38;;;23.30;63.80;;;;;;6103478;28;20053;-59
2022/10/26 06:52:01;;;;;;;0.98;0.47;;;22.80;63.10;;;;;;6114880;28;20037;-58
2022/10/26 06:55:04;;;;;;;0.88;0.30;;;22.70;63.40;;;;;;6103794;28;20178;-59
2022/10/26 06:58:11;;;;;;;0.43;0.20;;;23.00;64.00;;;;;;6118517;28;21045;-60
2022/10/26 07:01:13;;;;;;;0.65;0.28;;;22.70;63.30;;;;;;6090756;28;20055;-58
2022/10/26 07:04:14;;;;;;;0.43;0.20;;;22.70;63.50;;;;;;6068452;28;20036;-60
2022/10/26 07:07:19;;;;;;;7.88;0.50;;;22.90;63.20;;;;;;6071932;28;20988;-58
2022/10/26 07:10:21;;;;;;;1.58;0.30;;;22.60;63.20;;;;;;6062853;28;20094;-60
2022/10/26 07:13:23;;;;;;;0.85;0.25;;;22.90;63.30;;;;;;6068120;28;21620;-55
2022/10/26 07:16:24;;;;;;;1.77;0.40;;;23.00;63.70;;;;;;6050586;28;21728;-60
2022/10/26 07:19:26;;;;;;;0.93;0.38;;;23.10;63.50;;;;;;6079214;28;20029;-60
2022/10/26 07:22:27;;;;;;;1.75;0.32;;;23.00;63.50;;;;;;6068218;28;20040;-58
2022/10/26 07:25:29;;;;;;;;;;;23.10;63.20;;;;;;6079256;28;20045;-59
2022/10/26 07:28:31;;;;;;;1.45;0.40;;;23.10;63.20;;;;;;6063336;28;19928;-59
2022/10/26 07:31:33;;;;;;;2.38;0.22;;;23.10;63.20;;;;;;6005235;28;20053;-55
2022/10/26 07:34:34;;;;;;;;;;;22.60;63.20;;;;;;6023083;28;20037;-52
2022/10/26 07:37:36;;;;;;;2.90;0.28;;;23.10;63.90;;;;;;5980773;28;19928;-54
2022/10/26 07:40:38;;;;;;;2.45;0.30;;;23.20;63.60;;;;;;6068132;28;22703;-55
2022/10/26 07:43:40;;;;;;;0.80;0.25;;;23.40;63.20;;;;;;6055583;28;20056;-56
2022/10/26 07:46:41;;;;;;;1.70;0.50;;;22.80;63.00;;;;;;6015156;28;20037;-58
2022/10/26 07:49:43;;;;;;;3.78;0.70;;;22.70;63.50;;;;;;5994680;28;20044;-57
2022/10/26 07:52:44;;;;;;;;;;;22.70;63.10;;;;;;6025493;28;20041;-57
2022/10/26 07:55:53;;;;;;;2.20;0.38;;;23.20;63.40;;;;;;6015700;28;19932;-56
2022/10/26 07:58:55;;;;;;;0.20;0.20;;;23.20;63.20;;;;;;5997601;28;20187;-55
2022/10/26 08:01:57;;;;;;;1.30;0.40;;;23.10;62.80;;;;;;5994357;28;20033;-55
2022/10/26 08:04:59;;;;;;;2.05;0.38;;;23.30;63.00;;;;;;6006944;28;20040;-53
2022/10/26 08:08:01;;;;;;;0.70;0.20;;;23.30;77.80;;;;;;6018937;28;21189;-55
2022/10/26 08:11:04;;;;;;;2.10;0.38;;;23.00;62.70;;;;;;5995351;28;20170;-54
2022/10/26 08:14:06;;;;;;;0.77;0.30;;;23.40;62.70;;;;;;5984746;28;20047;-56
2022/10/26 08:17:08;;;;;;;0.70;0.30;;;23.40;62.60;;;;;;6028043;28;20535;-53
2022/10/26 08:20:11;;;;;;;1.23;0.40;;;23.60;62.70;;;;;;6010041;22;20049;-56
2022/10/26 08:23:13;;;;;;;2.08;0.50;;;23.20;62.30;;;;;;6002376;28;20045;-56
2022/10/26 08:26:17;;;;;;;1.38;0.30;;;23.10;62.20;;;;;;5957288;28;20034;-52
2022/10/26 08:29:19;;;;;;;1.35;0.40;;;23.20;62.40;;;;;;5984889;28;33540;-54
2022/10/26 08:32:21;;;;;;;0.95;0.30;;;23.40;62.30;;;;;;5986347;28;30021;-56
2022/10/26 08:35:22;;;;;;;0.95;0.32;;;23.40;62.50;;;;;;6001946;28;20551;-58
2022/10/26 08:38:24;;;;;;;0.20;0.17;;;23.60;62.50;;;;;;6009388;28;20882;-60
2022/10/26 08:41:34;;;;;;;0.50;0.20;;;23.20;62.00;;;;;;6013992;28;20052;-59
2022/10/26 08:44:41;;;;;;;2.92;0.47;;;23.60;62.10;;;;;;6001915;28;25537;-57
2022/10/26 08:47:46;;;;;;;1.23;0.40;;;23.30;61.80;;;;;;5949687;28;20052;-59
2022/10/26 08:50:54;;;;;;;1.85;0.30;;;23.20;61.90;;;;;;5976921;28;20447;-57
2022/10/26 08:53:58;;;;;;;1.33;0.80;;;23.70;62.10;;;;;;5972666;28;20057;-58
2022/10/26 08:57:10;;;;;;;2.80;0.63;;;23.60;61.90;;;;;;6004616;22;21368;-56
2022/10/26 09:00:15;;;;;;;1.80;0.68;;;23.70;62.00;;;;;;5920768;28;22842;-58
2022/10/26 09:03:19;;;;;;;3.33;0.77;;;23.30;61.80;;;;;;5891191;28;21910;-60
2022/10/26 09:06:30;;;;;;;1.65;0.75;;;23.60;61.90;;;;;;5927483;28;20250;-61
2022/10/26 09:09:43;;;;;;;4.63;0.90;;;23.80;62.00;;;;;;5931398;28;20179;-61
2022/10/26 09:12:53;;;;;;;1.42;0.68;;;23.50;61.90;;;;;;5943766;28;21131;-57
2022/10/26 09:16:02;;;;;;;2.13;0.55;;;23.40;61.90;;;;;;5922355;28;20060;-55
2022/10/26 09:19:24;;;;;;;1.45;0.40;;;23.40;62.10;;;;;;5965491;28;22960;-56
2022/10/26 09:22:34;;;;;;;1.53;0.67;;;23.90;62.20;;;;;;5970414;28;20176;-56
2022/10/26 09:25:38;;;;;;;1.55;0.28;;;23.50;62.00;;;;;;5931127;28;20132;-56
2022/10/26 09:28:45;;;;;;;1.17;0.50;;;23.50;62.10;;;;;;5910498;28;21141;-59
2022/10/26 09:31:49;;;;;;;2.45;0.70;;;23.40;61.90;;;;;;5896926;28;20981;-59
2022/10/26 09:34:55;;;;;;;3.75;0.60;;;23.70;62.20;;;;;;5887594;28;27589;-56
2022/10/26 09:38:03;;;;;;;0.82;0.43;;;23.40;62.00;;;;;;5930972;28;25363;-57
2022/10/26 09:41:17;;;;;;;0.80;0.40;;;23.50;62.00;;;;;;5917563;28;20053;-53
2022/10/26 09:44:26;;;;;;;1.35;0.52;;;23.80;62.10;;;;;;5892251;28;25273;-55
2022/10/26 09:47:34;;;;;;;0.75;0.40;;;23.80;62.10;;;;;;5917140;28;26985;-58
2022/10/26 09:50:39;;;;;;;1.58;0.30;;;24.00;62.20;;;;;;5926127;28;20049;-57
2022/10/26 09:53:40;;;;;;;0.77;0.20;;;24.20;62.30;;;;;;5951201;28;31433;-55
2022/10/26 09:56:46;;;;;;;0.55;0.20;;;23.90;62.30;;;;;;5963004;28;20320;-56
2022/10/26 09:59:51;;;;;;;0.77;0.35;;;23.80;62.30;;;;;;5987695;28;33990;-55
2022/10/26 10:02:54;;;;;;;0.98;0.20;;;24.10;62.30;;;;;;5987543;28;20052;-57
2022/10/26 10:06:15;;;;;;;2.50;0.52;;;23.70;62.30;;;;;;5982594;28;20072;-54
2022/10/26 10:09:20;;;;;;;1.17;0.40;;;23.90;62.50;;;;;;5958245;28;20156;-56
2022/10/26 10:12:24;;;;;;;0.85;0.20;;;24.10;62.70;;;;;;5979870;28;20070;-51
2022/10/26 10:15:26;;;;;;;0.98;0.40;;;24.20;62.80;;;;;;5998683;28;21112;-55
2022/10/26 10:18:28;;;;;;;0.47;0.28;;;24.10;62.80;;;;;;5972187;28;20054;-55
2022/10/26 10:21:35;;;;;;;1.00;0.30;;;24.10;62.50;;;;;;5980895;28;21255;-56
2022/10/26 10:24:40;;;;;;;1.67;0.65;;;23.90;62.70;;;;;;5992757;28;20121;-55
2022/10/26 10:27:52;;;;;;;1.23;0.50;;;24.00;62.80;;;;;;5997107;28;20048;-54
2022/10/26 10:30:58;;;;;;;1.30;0.60;;;23.80;62.90;;;;;;6010709;28;20041;-53
2022/10/26 10:34:00;;;;;;;1.05;0.43;;;23.80;62.90;;;;;;5987849;28;21259;-57
2022/10/26 10:37:04;;;;;;;1.17;0.50;;;24.20;63.30;;;;;;6024090;28;23461;-53
2022/10/26 10:40:13;;;;;;;1.98;0.50;;;24.00;63.30;;;;;;6000126;28;20116;-52
2022/10/26 10:43:20;;;;;;;0.77;0.43;;;24.10;63.60;;;;;;6051662;28;20057;-52
2022/10/26 10:46:25;;;;;;;1.23;0.60;;;23.70;64.10;;;;;;6053259;28;20593;-55
2022/10/26 10:49:28;;;;;;;1.25;0.50;;;24.40;64.10;;;;;;6037528;28;20045;-54
2022/10/26 10:52:32;;;;;;;2.63;0.60;;;24.10;64.70;;;;;;6003317;28;21474;-53
2022/10/26 10:55:34;;;;;;;0.85;0.45;;;23.60;63.40;;;;;;6062892;28;24237;-56
2022/10/26 10:58:44;;;;;;;0.82;0.35;;;23.70;64.30;;;;;;6048355;28;21182;-57
2022/10/26 11:01:53;;;;;;;0.63;0.30;;;23.80;64.40;;;;;;6043297;28;20167;-57
2022/10/26 11:05:16;;;;;;;1.33;0.70;;;24.30;64.90;;;;;;6031477;28;36287;-57
2022/10/26 11:08:25;;;;;;;3.60;0.70;;;23.90;65.10;;;;;;6034505;28;20087;-58
2022/10/26 11:11:32;;;;;;;0.73;0.30;;;23.90;64.30;;;;;;6020815;28;20092;-57
2022/10/26 11:14:38;;;;;;;1.00;0.30;;;23.40;64.30;;;;;;6031615;28;20077;-56
2022/10/26 11:17:49;;;;;;;1.60;0.40;;;23.90;64.60;;;;;;6033201;28;20049;-56
2022/10/26 11:21:00;;;;;;;1.20;0.40;;;24.30;64.90;;;;;;6001792;28;21745;-54
2022/10/26 11:24:14;;;;;;;1.25;0.60;;;23.80;64.70;;;;;;6026352;28;29876;-55
2022/10/26 11:27:18;;;;;;;1.10;0.63;;;23.80;64.70;;;;;;6049473;28;21301;-52
2022/10/26 11:30:21;;;;;;;1.50;0.52;;;23.50;64.70;;;;;;6024598;28;20951;-51
2022/10/26 11:33:29;;;;;;;1.58;0.60;;;24.10;65.00;;;;;;6005211;28;27238;-52
2022/10/26 11:36:33;;;;;;;1.60;0.47;;;23.70;64.90;;;;;;6037571;28;20056;-54
2022/10/26 11:39:42;;;;;;;2.60;0.80;;;23.90;65.00;;;;;;5980655;28;27216;-56
2022/10/26 11:42:49;;;;;;;2.92;1.13;;;23.50;64.90;;;;;;5984371;28;20049;-52
2022/10/26 11:46:04;;;;;;;1.13;0.57;;;23.60;65.20;;;;;;5966128;28;31692;-52
2022/10/26 11:49:14;;;;;;;2.95;0.45;;;23.90;65.80;;;;;;5978882;28;20096;-54
2022/10/26 11:52:23;;;;;;;0.83;0.30;;;23.80;65.90;;;;;;5935231;28;20065;-51
2022/10/26 11:55:25;;;;;;;1.25;0.30;;;23.90;66.10;;;;;;5954158;28;20127;-51
2022/10/26 11:58:27;;;;;;;1.48;0.30;;;23.70;66.20;;;;;;5955962;28;21671;-51
2022/10/26 12:01:30;;;;;;;0.43;0.30;;;23.90;66.30;;;;;;5922017;28;30792;-53
2022/10/26 12:04:36;;;;;;;0.90;0.40;;;23.50;66.10;;;;;;5902249;28;20057;-55
2022/10/26 12:07:43;;;;;;;0.77;0.20;;;23.50;66.20;;;;;;5855443;28;20077;-55
2022/10/26 12:11:01;;;;;;;1.60;0.30;;;23.70;66.30;;;;;;5886319;28;31960;-53
2022/10/26 12:14:17;;;;;;;0.43;0.25;;;23.70;66.40;;;;;;5932942;28;34570;-56
2022/10/26 12:17:25;;;;;;;0.40;0.20;;;23.90;66.70;;;;;;5953729;28;20135;-53
2022/10/26 12:20:51;;;;;;;0.70;0.30;;;24.30;66.80;;;;;;5944431;28;20050;-55
2022/10/26 12:23:56;;;;;;;0.73;0.35;;;24.20;66.80;;;;;;5944740;28;20041;-53
2022/10/26 12:26:59;;;;;;;0.82;0.30;;;24.10;66.70;;;;;;5925956;28;20537;-54
2022/10/26 12:30:21;;;;;;;0.80;0.43;;;23.70;66.40;;;;;;5938252;28;20152;-52
2022/10/26 12:33:30;;;;;;;0.70;0.55;;;24.10;66.80;;;;;;5932100;28;20033;-53
2022/10/26 12:36:47;;;;;;;0.57;0.40;;;24.20;67.00;;;;;;5937541;28;20531;-56
2022/10/26 12:39:49;;;;;;;0.98;0.65;;;23.70;66.80;;;;;;5935179;28;20050;-56
2022/10/26 12:42:50;;;;;;;0.68;0.40;;;24.30;67.10;;;;;;5954351;28;20042;-56
2022/10/26 12:46:10;;;;;;;1.73;0.30;;;23.80;66.80;;;;;;6023530;22;20175;-54
2022/10/26 12:49:36;;;;;;;1.90;0.88;;;24.00;67.10;;;;;;5998202;28;20048;-52
2022/10/26 12:52:51;;;;;;;1.52;0.35;;;24.20;67.00;;;;;;5947489;28;20047;-55
2022/10/26 12:56:04;;;;;;;0.47;0.40;;;23.80;66.90;;;;;;5963745;28;20049;-56
2022/10/26 12:59:23;;;;;;;1.58;0.35;;;23.80;66.90;;;;;;5965971;28;22152;-57
2022/10/26 13:02:38;;;;;;;1.55;0.35;;;24.30;67.30;;;;;;5920788;28;20432;-57
2022/10/26 13:06:09;;;;;;;2.97;0.35;;;24.00;67.20;;;;;;5969233;28;20044;-56
2022/10/26 13:09:16;;;;;;;0.65;0.20;;;24.30;67.50;;;;;;5967056;28;20171;-55
2022/10/26 13:12:22;;;;;;;0.55;0.30;;;24.10;67.50;;;;;;5930332;28;20092;-52
2022/10/26 13:15:27;;;;;;;0.55;0.20;;;24.20;67.60;;;;;;6015281;22;22101;-54
2022/10/26 13:18:29;;;;;;;2.03;0.50;;;24.10;67.70;;;;;;5903843;28;20049;-56
2022/10/26 13:21:44;;;;;;;0.85;0.40;;;24.20;68.00;;;;;;5947852;28;20322;-54
2022/10/26 13:24:51;;;;;;;1.83;0.40;;;24.40;67.90;;;;;;5917625;28;20131;-55
2022/10/26 13:28:04;;;;;;;1.05;0.40;;;24.10;67.70;;;;;;5944432;28;20104;-54
2022/10/26 13:31:12;;;;;;;0.60;0.30;;;24.20;68.00;;;;;;5927194;28;46406;-56
2022/10/26 13:34:17;;;;;;;1.05;0.40;;;24.30;68.20;;;;;;5922279;28;20534;-56
2022/10/26 13:37:23;;;;;;;1.65;0.50;;;24.40;68.00;;;;;;5935874;28;20120;-57
2022/10/26 13:40:27;;;;;;;2.17;0.50;;;24.20;68.00;;;;;;5925801;28;20045;-54
2022/10/26 13:43:29;;;;;;;2.10;0.50;;;23.90;67.90;;;;;;5884539;28;35505;-54
2022/10/26 13:46:37;;;;;;;1.85;0.68;;;23.60;67.90;;;;;;5927289;28;20052;-48
2022/10/26 13:49:42;;;;;;;2.83;0.90;;;24.30;68.40;;;;;;5941018;28;20181;-47
2022/10/26 13:52:47;;;;;;;3.35;0.93;;;24.10;68.30;;;;;;5936594;28;25415;-48
2022/10/26 13:55:57;;;;;;;3.42;0.68;;;24.20;68.50;;;;;;5947482;28;20042;-51
2022/10/26 13:59:02;;;;;;;3.40;0.60;;;24.00;68.30;;;;;;5961893;28;20050;-50
2022/10/26 14:02:06;;;;;;;2.90;0.50;;;24.40;68.70;;;;;;5932930;28;21622;-47
2022/10/26 14:05:12;;;;;;;2.30;0.60;;;24.10;68.50;;;;;;5942199;28;20048;-49
2022/10/26 14:08:17;;;;;;;1.65;0.63;;;24.50;68.50;;;;;;5938319;28;20049;-46
2022/10/26 14:11:23;;;;;;;1.40;0.52;;;24.30;68.10;;;;;;5933961;28;20046;-45
2022/10/26 14:14:28;;;;;;;2.17;0.68;;;24.00;68.10;;;;;;5951919;28;20164;-48
2022/10/26 14:17:30;;;;;;;1.05;0.50;;;24.40;68.10;;;;;;5984121;28;21148;-47
2022/10/26 14:20:31;;;;;;;1.13;0.55;;;24.30;68.10;;;;;;5930731;28;20042;-47
2022/10/26 14:23:35;;;;;;;3.05;0.80;;;24.40;68.10;;;;;;5951008;28;20250;-44
2022/10/26 14:26:40;;;;;;;2.75;0.68;;;24.50;68.20;;;;;;5977143;28;20157;-47
2022/10/26 14:29:44;;;;;;;1.77;0.70;;;24.30;67.80;;;;;;5939290;28;21830;-50
2022/10/26 14:32:59;;;;;;;2.10;0.40;;;24.50;67.90;;;;;;5928580;28;23872;-48
2022/10/26 14:36:01;;;;;;;2.97;0.45;;;24.50;67.80;;;;;;5959706;28;20057;-45
2022/10/26 14:39:07;;;;;;;2.80;0.60;;;24.10;67.40;;;;;;5960683;28;20046;-50
2022/10/26 14:42:15;;;;;;;2.75;0.60;;;24.50;67.30;;;;;;5968003;28;20053;-47
2022/10/26 14:45:24;;;;;;;2.08;0.70;;;24.20;66.90;;;;;;5946681;28;20049;-50
2022/10/26 14:48:55;;;;;;;2.25;0.52;;;24.30;66.80;;;;;;5904358;28;20046;-48
2022/10/26 14:51:59;;;;;;;2.28;0.70;;;24.20;66.70;;;;;;5962237;28;22165;-47
2022/10/26 14:55:10;;;;;;;1.25;0.52;;;24.10;66.40;;;;;;5976373;28;20184;-51
2022/10/26 14:58:25;;;;;;;3.13;0.80;;;24.50;66.70;;;;;;5951889;28;20049;-49
2022/10/26 15:01:31;;;;;;;1.88;0.70;;;24.60;66.60;;;;;;5924598;28;20049;-49
2022/10/26 15:04:39;;;;;;;2.67;0.80;;;24.20;66.20;;;;;;5935094;28;20041;-51
2022/10/26 15:07:43;;;;;;;1.60;0.40;;;24.40;66.40;;;;;;5931846;28;20471;-51
2022/10/26 15:10:46;;;;;;;1.90;0.40;;;24.50;66.20;;;;;;5963617;28;20167;-46
2022/10/26 15:13:49;;;;;;;0.57;0.30;;;24.30;66.20;;;;;;5911362;28;22410;-44
2022/10/26 15:16:54;;;;;;;1.80;0.40;;;24.50;66.10;;;;;;5970623;28;20041;-45
2022/10/26 15:19:56;;;;;;;0.65;0.38;;;24.40;66.10;;;;;;5964182;28;28911;-53
2022/10/26 15:23:00;;;;;;;0.98;0.28;;;24.50;66.00;;;;;;5963299;28;20041;-43
2022/10/26 15:26:02;;;;;;;0.63;0.30;;;24.40;66.10;;;;;;5990813;28;20065;-46
2022/10/26 15:29:32;;;;;;;0.68;0.30;;;24.30;66.10;;;;;;5988285;28;20116;-49
2022/10/26 15:32:34;;;;;;;0.57;0.28;;;23.70;65.60;;;;;;5968076;28;20050;-48
2022/10/26 15:35:35;;;;;;;2.05;0.20;;;24.80;66.10;;;;;;5992636;28;20172;-47
2022/10/26 15:38:37;;;;;;;0.60;0.40;;;24.40;66.00;;;;;;5988825;28;20045;-50
2022/10/26 15:41:46;;;;;;;0.75;0.35;;;24.50;65.50;;;;;;5963852;28;22987;-51
2022/10/26 15:44:51;;;;;;;0.40;0.20;;;24.30;65.50;;;;;;5968457;28;21059;-50
2022/10/26 15:47:55;;;;;;;0.47;0.40;;;24.30;65.30;;;;;;6023313;28;20058;-51
2022/10/26 15:50:58;;;;;;;0.35;0.15;;;24.30;65.20;;;;;;5958987;28;20049;-49
2022/10/26 15:54:03;;;;;;;0.30;0.20;;;24.40;65.40;;;;;;6002947;28;21086;-50
2022/10/26 15:57:04;;;;;;;2.35;0.40;;;24.70;65.30;;;;;;5981644;28;20056;-54
2022/10/26 16:00:14;;;;;;;0.93;0.40;;;24.20;64.80;;;;;;6002289;28;25187;-52
2022/10/26 16:03:19;;;;;;;0.50;0.28;;;24.30;64.80;;;;;;6007027;28;20034;-53
2022/10/26 16:06:25;;;;;;;0.32;0.30;;;24.00;64.70;;;;;;6017109;28;32017;-54
2022/10/26 16:09:27;;;;;;;1.67;1.00;;;24.50;64.70;;;;;;6026846;28;21750;-53
2022/10/26 16:12:29;;;;;;;1.15;0.90;;;24.40;64.50;;;;;;6025523;28;20328;-53
2022/10/26 16:15:31;;;;;;;1.40;0.80;;;24.30;64.40;;;;;;6055082;28;20037;-54